Time;durP1;ratioP1;P1;durP2;ratioP2;P2;SDS_P1;SDS_P2;PMS_P1;PMS_P2;Temp;Humidity;BMP_temperature;BMP_pressure;BME280_temperature;BME280_humidity;BME280_pressure;Samples;Min_cycle;Max_cycle;Signal;HPM_P1;HPM_P2
2023/05/31 00:00:33;;;;;;;4.70;1.88;;;;;;;;;;5007972;28;20033;-80
2023/05/31 00:02:58;;;;;;;3.83;1.50;;;;;;;;;;5028930;28;20038;-80
2023/05/31 00:05:23;;;;;;;6.00;1.70;;;;;;;;;;5011090;28;20033;-80
2023/05/31 00:07:49;;;;;;;6.15;1.75;;;;;;;;;;5008209;28;20084;-80
2023/05/31 00:10:14;;;;;;;4.35;1.40;;;;;;;;;;5027556;28;20021;-80
2023/05/31 00:12:39;;;;;;;3.83;1.75;;;;;;;;;;5008769;28;20026;-80
2023/05/31 00:15:05;;;;;;;5.45;1.85;;;;;;;;;;5029769;28;20103;-80
2023/05/31 00:17:30;;;;;;;4.38;1.60;;;;;;;;;;5026186;28;20382;-80
2023/05/31 00:19:55;;;;;;;3.58;1.50;;;;;;;;;;5009699;28;20404;-80
2023/05/31 00:22:20;;;;;;;5.82;1.50;;;;;;;;;;5031412;28;20446;-80
2023/05/31 00:24:45;;;;;;;4.28;1.70;;;;;;;;;;5028466;28;20037;-80
2023/05/31 00:27:11;;;;;;;8.68;1.40;;;;;;;;;;5011372;28;20442;-79
2023/05/31 00:29:36;;;;;;;5.95;1.83;;;;;;;;;;5028755;28;20064;-80
2023/05/31 00:32:01;;;;;;;5.82;1.65;;;;;;;;;;5009464;28;20128;-79
2023/05/31 00:34:26;;;;;;;5.40;1.80;;;;;;;;;;5008471;28;20025;-80
2023/05/31 00:36:53;;;;;;;8.45;1.92;;;;;;;;;;5034665;28;20538;-79
2023/05/31 00:39:18;;;;;;;6.10;1.67;;;;;;;;;;5028092;28;20030;-79
2023/05/31 00:41:44;;;;;;;4.22;1.50;;;;;;;;;;5008990;28;20056;-80
2023/05/31 00:44:09;;;;;;;4.93;1.80;;;;;;;;;;4990516;28;20033;-79
2023/05/31 00:46:36;;;;;;;3.25;1.48;;;;;;;;;;5015244;28;20034;-79
2023/05/31 00:49:01;;;;;;;5.78;1.60;;;;;;;;;;4991326;28;20034;-79
2023/05/31 00:51:28;;;;;;;4.75;1.70;;;;;;;;;;5009568;28;20393;-79
2023/05/31 00:53:54;;;;;;;4.72;1.70;;;;;;;;;;5007687;28;20592;-80
2023/05/31 00:56:21;;;;;;;3.53;1.35;;;;;;;;;;5027257;28;20500;-79
2023/05/31 00:58:46;;;;;;;5.10;1.50;;;;;;;;;;5010230;28;20021;-80
2023/05/31 01:01:15;;;;;;;3.60;1.63;;;;;;;;;;5013241;28;20014;-80
2023/05/31 01:03:40;;;;;;;8.98;1.80;;;;;;;;;;5027470;28;20038;-80
2023/05/31 01:06:07;;;;;;;4.53;1.40;;;;;;;;;;5027786;28;20034;-79
2023/05/31 01:08:32;;;;;;;3.83;1.58;;;;;;;;;;5023944;28;20042;-80
2023/05/31 01:11:00;;;;;;;3.97;1.60;;;;;;;;;;5009831;28;20049;-79
2023/05/31 01:13:34;;;;;;;3.70;1.48;;;;;;;;;;5009414;28;20041;-79
2023/05/31 01:15:59;;;;;;;4.22;1.58;;;;;;;;;;5023686;28;20538;-79
2023/05/31 01:18:26;;;;;;;4.97;1.60;;;;;;;;;;4991035;28;20038;-79
2023/05/31 01:20:53;;;;;;;4.93;1.40;;;;;;;;;;5027299;28;20050;-79
2023/05/31 01:23:30;;;;;;;3.85;1.50;;;;;;;;;;5010310;28;20037;-79
2023/05/31 01:25:58;;;;;;;4.43;1.60;;;;;;;;;;5027567;28;20040;-79
2023/05/31 01:28:25;;;;;;;6.90;1.50;;;;;;;;;;5006449;28;20111;-78
2023/05/31 01:30:51;;;;;;;3.60;1.52;;;;;;;;;;5012032;28;20033;-79
2023/05/31 01:33:17;;;;;;;6.45;1.52;;;;;;;;;;5014546;28;20037;-79
2023/05/31 01:35:42;;;;;;;6.05;1.45;;;;;;;;;;5026462;28;20044;-79
2023/05/31 01:38:07;;;;;;;5.40;1.85;;;;;;;;;;5008153;28;20045;-80
2023/05/31 01:40:33;;;;;;;6.15;1.60;;;;;;;;;;5007753;28;20484;-79
2023/05/31 01:42:59;;;;;;;4.80;1.83;;;;;;;;;;5007273;28;20032;-79
2023/05/31 01:45:25;;;;;;;4.45;1.67;;;;;;;;;;5025170;28;20025;-79
2023/05/31 01:47:54;;;;;;;7.65;3.40;;;;;;;;;;5007068;28;20076;-79
2023/05/31 01:50:20;;;;;;;5.03;1.73;;;;;;;;;;5027038;28;20060;-79
2023/05/31 01:52:45;;;;;;;6.55;2.08;;;;;;;;;;5007898;28;20037;-79
2023/05/31 01:55:11;;;;;;;5.55;1.98;;;;;;;;;;5007031;28;20064;-79
2023/05/31 01:57:37;;;;;;;4.53;1.60;;;;;;;;;;5025236;28;20026;-79
2023/05/31 02:00:11;;;;;;;6.50;1.65;;;;;;;;;;5006266;28;20033;-79
2023/05/31 02:02:41;;;;;;;4.43;1.75;;;;;;;;;;5022544;28;20508;-79
2023/05/31 02:05:16;;;;;;;4.00;1.92;;;;;;;;;;5008409;28;20160;-79
2023/05/31 02:07:42;;;;;;;4.30;1.60;;;;;;;;;;4990949;28;20038;-80
2023/05/31 02:10:08;;;;;;;4.47;1.60;;;;;;;;;;5008310;28;20045;-79
2023/05/31 02:12:35;;;;;;;4.70;1.77;;;;;;;;;;5005735;28;20029;-78
2023/05/31 02:15:00;;;;;;;3.15;1.65;;;;;;;;;;5021963;28;20049;-79
2023/05/31 02:17:26;;;;;;;4.38;1.52;;;;;;;;;;5007265;28;20033;-79
2023/05/31 02:19:54;;;;;;;5.63;2.20;;;;;;;;;;5025543;28;20033;-79
2023/05/31 02:22:21;;;;;;;3.75;1.45;;;;;;;;;;5005238;28;20113;-78
2023/05/31 02:24:46;;;;;;;3.55;1.40;;;;;;;;;;5008024;28;20073;-79
2023/05/31 02:27:14;;;;;;;3.45;1.50;;;;;;;;;;5004962;28;20038;-79
2023/05/31 02:29:40;;;;;;;4.65;1.75;;;;;;;;;;5022203;28;20080;-79
2023/05/31 02:32:05;;;;;;;4.20;1.60;;;;;;;;;;5025988;28;20029;-78
2023/05/31 02:34:31;;;;;;;5.35;1.77;;;;;;;;;;4988495;28;20069;-79
2023/05/31 02:36:56;;;;;;;6.10;2.00;;;;;;;;;;5026062;28;20037;-79
2023/05/31 02:39:22;;;;;;;8.30;1.75;;;;;;;;;;5025742;28;20060;-79
2023/05/31 02:41:47;;;;;;;7.85;2.38;;;;;;;;;;5024776;28;20484;-79
2023/05/31 02:44:13;;;;;;;4.53;1.90;;;;;;;;;;4990674;28;20497;-79
2023/05/31 02:46:39;;;;;;;4.82;2.05;;;;;;;;;;4997312;28;20453;-79
2023/05/31 02:49:05;;;;;;;8.38;2.13;;;;;;;;;;4990680;28;20037;-79
2023/05/31 02:51:31;;;;;;;5.07;1.50;;;;;;;;;;5005801;28;20053;-79
2023/05/31 02:54:15;;;;;;;5.53;1.80;;;;;;;;;;5023144;28;20124;-79
2023/05/31 02:56:40;;;;;;;5.50;1.73;;;;;;;;;;5016358;28;20026;-79
2023/05/31 02:59:18;;;;;;;4.57;1.98;;;;;;;;;;5005415;28;20030;-79
2023/05/31 03:01:50;;;;;;;4.97;2.13;;;;;;;;;;5005378;28;20057;-79
2023/05/31 03:04:31;;;;;;;6.68;2.22;;;;;;;;;;5010333;28;20033;-78
2023/05/31 03:06:58;;;;;;;4.53;2.10;;;;;;;;;;5005231;28;20504;-79
2023/05/31 03:09:23;;;;;;;5.82;1.90;;;;;;;;;;5011142;28;20048;-79
2023/05/31 03:11:50;;;;;;;6.05;1.60;;;;;;;;;;5008280;28;20044;-79
2023/05/31 03:14:16;;;;;;;9.32;2.55;;;;;;;;;;4995089;28;20040;-79
2023/05/31 03:16:47;;;;;;;5.18;2.67;;;;;;;;;;5007555;28;20029;-79
2023/05/31 03:19:12;;;;;;;5.50;2.42;;;;;;;;;;5004917;28;20060;-79
2023/05/31 03:21:39;;;;;;;6.78;2.90;;;;;;;;;;5011532;28;20037;-79
2023/05/31 03:24:05;;;;;;;5.75;1.92;;;;;;;;;;5015278;28;20037;-78
2023/05/31 03:26:31;;;;;;;8.48;2.70;;;;;;;;;;4991859;28;20033;-79
2023/05/31 03:28:57;;;;;;;6.82;2.75;;;;;;;;;;5011213;28;20056;-78
2023/05/31 03:31:22;;;;;;;5.47;2.58;;;;;;;;;;4994470;28;20116;-78
2023/05/31 03:33:47;;;;;;;5.93;2.25;;;;;;;;;;5010744;28;20056;-79
2023/05/31 03:36:13;;;;;;;6.60;2.17;;;;;;;;;;4991535;28;20025;-78
2023/05/31 03:38:39;;;;;;;8.52;2.45;;;;;;;;;;5011267;28;20029;-78
2023/05/31 03:41:04;;;;;;;8.75;2.13;;;;;;;;;;4999548;28;20123;-79
2023/05/31 03:43:30;;;;;;;6.20;1.92;;;;;;;;;;5030954;28;20120;-78
2023/05/31 03:45:56;;;;;;;9.10;2.22;;;;;;;;;;5011301;28;20033;-78
2023/05/31 03:48:21;;;;;;;6.32;2.08;;;;;;;;;;5008004;28;20081;-79
2023/05/31 03:50:46;;;;;;;7.70;2.25;;;;;;;;;;5011444;28;20498;-79
2023/05/31 03:53:13;;;;;;;4.85;2.20;;;;;;;;;;5007979;28;20038;-80
2023/05/31 03:55:38;;;;;;;5.93;2.22;;;;;;;;;;4997808;28;20060;-80
2023/05/31 03:58:03;;;;;;;6.45;1.98;;;;;;;;;;4998008;28;20018;-80
2023/05/31 04:00:29;;;;;;;6.85;2.30;;;;;;;;;;5008471;28;20094;-79
2023/05/31 04:02:56;;;;;;;3.85;1.90;;;;;;;;;;5011503;28;20028;-79
2023/05/31 04:05:22;;;;;;;4.40;2.05;;;;;;;;;;5010563;28;20399;-82
2023/05/31 04:07:47;;;;;;;4.40;2.00;;;;;;;;;;5014321;28;20026;-79
2023/05/31 04:10:12;;;;;;;6.78;2.17;;;;;;;;;;5017339;28;20116;-79
2023/05/31 04:12:37;;;;;;;6.20;2.50;;;;;;;;;;5028869;28;20109;-80
2023/05/31 04:15:03;;;;;;;4.88;1.88;;;;;;;;;;4993010;28;20036;-79
2023/05/31 04:17:29;;;;;;;4.03;2.28;;;;;;;;;;5009633;28;20033;-79
2023/05/31 04:19:54;;;;;;;5.10;2.65;;;;;;;;;;5007869;28;20026;-79
2023/05/31 04:22:20;;;;;;;5.32;2.08;;;;;;;;;;5009333;28;20093;-78
2023/05/31 04:24:46;;;;;;;7.13;2.70;;;;;;;;;;5013386;28;20444;-79
2023/05/31 04:27:18;;;;;;;7.57;2.40;;;;;;;;;;4997489;28;20034;-79
2023/05/31 04:29:45;;;;;;;8.65;2.60;;;;;;;;;;4995140;28;20120;-79
2023/05/31 04:32:14;;;;;;;10.52;3.28;;;;;;;;;;5019234;28;20443;-79
2023/05/31 04:34:40;;;;;;;6.40;2.10;;;;;;;;;;4993697;28;20034;-79
2023/05/31 04:37:05;;;;;;;7.35;2.47;;;;;;;;;;5013512;28;20022;-79
2023/05/31 04:39:31;;;;;;;6.38;1.98;;;;;;;;;;5018775;28;20535;-79
2023/05/31 04:41:59;;;;;;;7.22;3.08;;;;;;;;;;5006270;28;20104;-79
2023/05/31 04:44:24;;;;;;;9.57;6.03;;;;;;;;;;5006112;28;20042;-77
2023/05/31 04:46:52;;;;;;;20.40;7.68;;;;;;;;;;5008880;28;20037;-77
2023/05/31 04:49:18;;;;;;;11.43;3.47;;;;;;;;;;5013298;28;20041;-76
2023/05/31 04:51:44;;;;;;;6.75;2.70;;;;;;;;;;5007484;28;20033;-76
2023/05/31 04:54:09;;;;;;;4.85;2.05;;;;;;;;;;5008327;28;20034;-79
2023/05/31 04:56:34;;;;;;;4.93;2.58;;;;;;;;;;5012656;28;20036;-80
2023/05/31 04:59:00;;;;;;;6.18;2.30;;;;;;;;;;5023169;28;20014;-79
2023/05/31 05:01:26;;;;;;;5.78;2.80;;;;;;;;;;5001207;28;20088;-80
2023/05/31 05:04:01;;;;;;;8.52;4.40;;;;;;;;;;5016559;28;20048;-79
2023/05/31 05:06:28;;;;;;;7.00;3.45;;;;;;;;;;5019106;28;20030;-80
2023/05/31 05:08:53;;;;;;;5.18;2.88;;;;;;;;;;5012710;28;20068;-79
2023/05/31 05:11:18;;;;;;;5.15;2.85;;;;;;;;;;5007975;28;20053;-80
2023/05/31 05:13:45;;;;;;;4.53;2.33;;;;;;;;;;5007606;28;20032;-80
2023/05/31 05:16:10;;;;;;;9.05;2.75;;;;;;;;;;5014161;28;20018;-79
2023/05/31 05:18:36;;;;;;;5.60;2.53;;;;;;;;;;5021917;23;20045;-77
2023/05/31 05:21:03;;;;;;;5.53;1.88;;;;;;;;;;5002802;28;20062;-77
2023/05/31 05:23:32;;;;;;;5.68;2.10;;;;;;;;;;5005221;28;20034;-77
2023/05/31 05:25:59;;;;;;;5.30;2.05;;;;;;;;;;5023884;28;20037;-77
2023/05/31 05:28:25;;;;;;;6.53;2.40;;;;;;;;;;5005358;28;20025;-77
2023/05/31 05:30:50;;;;;;;6.45;2.30;;;;;;;;;;5004069;28;20026;-77
2023/05/31 05:33:16;;;;;;;5.00;2.63;;;;;;;;;;5005707;28;20030;-77
2023/05/31 05:35:42;;;;;;;5.65;2.95;;;;;;;;;;5004656;28;20025;-77
2023/05/31 05:38:07;;;;;;;6.82;3.15;;;;;;;;;;5008252;28;20032;-77
2023/05/31 05:40:33;;;;;;;5.88;2.60;;;;;;;;;;5004600;28;20113;-77
2023/05/31 05:42:58;;;;;;;9.20;2.75;;;;;;;;;;5004523;28;20105;-77
2023/05/31 05:45:23;;;;;;;9.00;2.42;;;;;;;;;;5004767;28;20030;-77
2023/05/31 05:47:49;;;;;;;5.72;2.25;;;;;;;;;;5003271;28;20072;-77
2023/05/31 05:50:16;;;;;;;6.43;2.38;;;;;;;;;;5004653;28;20033;-77
2023/05/31 05:52:41;;;;;;;8.48;2.40;;;;;;;;;;5004629;28;20033;-77
2023/05/31 05:55:07;;;;;;;6.13;2.50;;;;;;;;;;5002699;28;20021;-77
2023/05/31 05:57:33;;;;;;;5.05;2.30;;;;;;;;;;4987705;28;20552;-77
2023/05/31 06:00:15;;;;;;;6.95;2.67;;;;;;;;;;4998363;28;20392;-77
2023/05/31 06:02:44;;;;;;;5.80;2.67;;;;;;;;;;5004500;28;20021;-77
2023/05/31 06:05:09;;;;;;;7.82;2.85;;;;;;;;;;5004811;28;20029;-77
2023/05/31 06:07:35;;;;;;;6.75;2.88;;;;;;;;;;5003824;28;20067;-75
2023/05/31 06:10:02;;;;;;;8.52;3.20;;;;;;;;;;5004484;28;20124;-75
2023/05/31 06:12:29;;;;;;;8.88;2.80;;;;;;;;;;5005496;28;20091;-75
2023/05/31 06:14:54;;;;;;;6.03;2.30;;;;;;;;;;5004285;28;20404;-75
2023/05/31 06:17:20;;;;;;;11.60;2.95;;;;;;;;;;4997448;28;20026;-75
2023/05/31 06:19:45;;;;;;;8.88;2.50;;;;;;;;;;5001543;28;20026;-75
2023/05/31 06:22:11;;;;;;;9.90;3.28;;;;;;;;;;5012375;28;20072;-75
2023/05/31 06:24:36;;;;;;;5.97;2.30;;;;;;;;;;5020432;28;20389;-75
2023/05/31 06:27:02;;;;;;;6.75;2.03;;;;;;;;;;5004452;28;20419;-75
2023/05/31 06:29:30;;;;;;;6.88;2.95;;;;;;;;;;5004878;28;20033;-75
2023/05/31 06:31:58;;;;;;;6.43;2.80;;;;;;;;;;5020409;28;20034;-76
2023/05/31 06:34:26;;;;;;;4.72;2.53;;;;;;;;;;5013322;28;20037;-75
2023/05/31 06:36:53;;;;;;;10.32;3.90;;;;;;;;;;5005408;28;20470;-76
2023/05/31 06:39:18;;;;;;;8.60;3.78;;;;;;;;;;5019571;28;20062;-75
2023/05/31 06:41:43;;;;;;;6.88;3.75;;;;;;;;;;5005287;28;20056;-75
2023/05/31 06:44:27;;;;;;;4.80;2.17;;;;;;;;;;5022666;28;20076;-75
2023/05/31 06:47:04;;;;;;;6.85;2.35;;;;;;;;;;5002637;28;20032;-76
2023/05/31 06:49:47;;;;;;;5.57;2.38;;;;;;;;;;5021214;28;20594;-75
2023/05/31 06:52:35;;;;;;;7.25;2.72;;;;;;;;;;5014794;28;20041;-76
2023/05/31 06:55:21;;;;;;;7.78;2.83;;;;;;;;;;5017431;28;20072;-75
2023/05/31 06:57:46;;;;;;;6.28;2.40;;;;;;;;;;5020053;28;20050;-76
2023/05/31 07:00:12;;;;;;;6.22;2.58;;;;;;;;;;5020995;28;20078;-76
2023/05/31 07:02:37;;;;;;;6.60;2.45;;;;;;;;;;5002781;28;20022;-75
2023/05/31 07:05:02;;;;;;;8.05;2.35;;;;;;;;;;5003898;28;20060;-76
2023/05/31 07:07:28;;;;;;;8.75;2.63;;;;;;;;;;5003092;28;20076;-75
2023/05/31 07:09:53;;;;;;;5.18;2.05;;;;;;;;;;5004354;28;20034;-76
2023/05/31 07:12:18;;;;;;;6.68;2.10;;;;;;;;;;5003542;28;20029;-76
2023/05/31 07:14:44;;;;;;;5.55;2.47;;;;;;;;;;5003415;28;20049;-76
2023/05/31 07:17:10;;;;;;;4.18;2.20;;;;;;;;;;5005774;28;20032;-75
2023/05/31 07:19:48;;;;;;;5.03;2.22;;;;;;;;;;5000513;28;20033;-76
2023/05/31 07:22:14;;;;;;;7.13;2.63;;;;;;;;;;5022912;28;20048;-75
2023/05/31 07:24:39;;;;;;;8.82;2.10;;;;;;;;;;5005800;28;20030;-75
2023/05/31 07:27:05;;;;;;;7.15;2.58;;;;;;;;;;5020687;28;20037;-75
2023/05/31 07:29:30;;;;;;;8.27;2.33;;;;;;;;;;5018911;28;20404;-76
2023/05/31 07:31:55;;;;;;;7.68;2.65;;;;;;;;;;5019477;28;20045;-75
2023/05/31 07:34:21;;;;;;;7.30;2.75;;;;;;;;;;5018715;28;20508;-75
2023/05/31 07:36:46;;;;;;;8.40;2.45;;;;;;;;;;5019406;28;20034;-75
2023/05/31 07:39:11;;;;;;;8.85;2.25;;;;;;;;;;5021992;28;20048;-76
2023/05/31 07:41:37;;;;;;;9.30;2.63;;;;;;;;;;5019465;28;20481;-75
2023/05/31 07:44:02;;;;;;;9.18;2.92;;;;;;;;;;5018016;28;20064;-75
2023/05/31 07:46:28;;;;;;;7.75;2.58;;;;;;;;;;5002032;28;20096;-75
2023/05/31 07:48:53;;;;;;;5.53;2.10;;;;;;;;;;5018531;28;20034;-76
2023/05/31 07:51:19;;;;;;;9.93;2.45;;;;;;;;;;5021884;28;20487;-76
2023/05/31 07:53:44;;;;;;;9.80;3.55;;;;;;;;;;5017465;28;20045;-75
2023/05/31 07:56:09;;;;;;;8.40;2.60;;;;;;;;;;5023458;28;20030;-76
2023/05/31 07:58:35;;;;;;;8.68;3.10;;;;;;;;;;5019955;28;20033;-76
2023/05/31 08:01:00;;;;;;;14.45;2.30;;;;;;;;;;5020156;28;20049;-76
2023/05/31 08:03:26;;;;;;;14.43;2.83;;;;;;;;;;5018706;28;20034;-76
2023/05/31 08:05:52;;;;;;;9.07;2.70;;;;;;;;;;5005723;28;20041;-76
2023/05/31 08:08:17;;;;;;;5.70;2.30;;;;;;;;;;5003332;28;20034;-76
2023/05/31 08:10:43;;;;;;;5.57;2.10;;;;;;;;;;5021372;28;20084;-76
2023/05/31 08:13:08;;;;;;;9.32;1.73;;;;;;;;;;5024471;28;20150;-76
2023/05/31 08:15:33;;;;;;;6.97;4.05;;;;;;;;;;5023788;28;20038;-75
2023/05/31 08:17:59;;;;;;;6.80;1.80;;;;;;;;;;5021950;28;20025;-75
2023/05/31 08:20:24;;;;;;;5.93;2.03;;;;;;;;;;5023959;28;20025;-76
2023/05/31 08:22:50;;;;;;;6.47;2.17;;;;;;;;;;5024199;28;20037;-76
2023/05/31 08:25:16;;;;;;;7.55;2.05;;;;;;;;;;5023811;28;20045;-76
2023/05/31 08:27:42;;;;;;;7.53;1.80;;;;;;;;;;5009939;28;20119;-76
2023/05/31 08:30:12;;;;;;;9.27;2.28;;;;;;;;;;5026304;28;20081;-76
2023/05/31 08:32:37;;;;;;;6.05;1.80;;;;;;;;;;5025030;28;20047;-76
2023/05/31 08:35:03;;;;;;;6.00;1.75;;;;;;;;;;5020775;28;20516;-76
2023/05/31 08:37:28;;;;;;;6.72;1.90;;;;;;;;;;5021783;28;20455;-76
2023/05/31 08:39:53;;;;;;;6.27;1.70;;;;;;;;;;5003809;28;20062;-76
2023/05/31 08:42:24;;;;;;;6.07;2.27;;;;;;;;;;5020608;28;20399;-76
2023/05/31 08:44:49;;;;;;;6.50;1.60;;;;;;;;;;5018194;28;20277;-76
2023/05/31 08:47:19;;;;;;;5.10;2.00;;;;;;;;;;5023006;28;20084;-76
2023/05/31 08:49:44;;;;;;;3.47;1.27;;;;;;;;;;5022371;28;20076;-76
2023/05/31 08:52:10;;;;;;;4.97;2.00;;;;;;;;;;4990522;28;20504;-76
2023/05/31 08:54:36;;;;;;;8.82;1.85;;;;;;;;;;5019448;28;20041;-76
2023/05/31 08:57:03;;;;;;;3.88;1.60;;;;;;;;;;5022903;28;20451;-76
2023/05/31 08:59:28;;;;;;;5.05;1.50;;;;;;;;;;5023342;28;20049;-76
2023/05/31 09:01:54;;;;;;;4.00;1.40;;;;;;;;;;5023103;28;20026;-76
2023/05/31 09:04:19;;;;;;;7.63;1.50;;;;;;;;;;5023426;28;20075;-76
2023/05/31 09:06:45;;;;;;;4.97;1.35;;;;;;;;;;5022831;28;20480;-76
2023/05/31 09:09:11;;;;;;;4.20;1.40;;;;;;;;;;5024862;28;20037;-76
2023/05/31 09:11:40;;;;;;;5.37;1.10;;;;;;;;;;5023418;28;20106;-76
2023/05/31 09:14:06;;;;;;;5.18;1.35;;;;;;;;;;5004642;28;21166;-76
2023/05/31 09:16:31;;;;;;;4.47;1.50;;;;;;;;;;5023977;28;20172;-76
2023/05/31 09:19:01;;;;;;;3.35;1.30;;;;;;;;;;5020439;28;20033;-75
2023/05/31 09:21:26;;;;;;;6.45;1.60;;;;;;;;;;5020743;28;20064;-76
2023/05/31 09:23:54;;;;;;;5.70;1.50;;;;;;;;;;5023424;28;20384;-76
2023/05/31 09:26:20;;;;;;;5.90;1.70;;;;;;;;;;5016938;28;20408;-76
2023/05/31 09:28:52;;;;;;;4.60;1.40;;;;;;;;;;5023892;28;20451;-76
2023/05/31 09:31:18;;;;;;;4.57;1.50;;;;;;;;;;5023747;28;20116;-76
2023/05/31 09:33:44;;;;;;;5.30;1.48;;;;;;;;;;5020867;28;20172;-76
2023/05/31 09:36:15;;;;;;;4.90;1.42;;;;;;;;;;5020459;28;20054;-76
2023/05/31 09:38:40;;;;;;;3.72;1.23;;;;;;;;;;5021114;28;20026;-76
2023/05/31 09:41:15;;;;;;;3.00;1.40;;;;;;;;;;5004080;28;20480;-76
2023/05/31 09:43:41;;;;;;;5.75;1.40;;;;;;;;;;5020571;28;20272;-76
2023/05/31 09:46:20;;;;;;;4.93;1.70;;;;;;;;;;5015504;28;20060;-76
2023/05/31 09:48:46;;;;;;;5.40;1.90;;;;;;;;;;5021403;28;20088;-76
2023/05/31 09:51:11;;;;;;;5.45;1.63;;;;;;;;;;5023863;28;20029;-76
2023/05/31 09:53:44;;;;;;;6.43;2.15;;;;;;;;;;5024359;28;20034;-76
2023/05/31 09:56:11;;;;;;;3.58;1.90;;;;;;;;;;5022466;28;20523;-76
2023/05/31 09:58:36;;;;;;;5.53;1.85;;;;;;;;;;5017285;28;20036;-76
2023/05/31 10:01:02;;;;;;;4.28;1.65;;;;;;;;;;5023311;28;20403;-77
2023/05/31 10:03:28;;;;;;;6.15;2.47;;;;;;;;;;5020192;28;20025;-76
2023/05/31 10:05:53;;;;;;;6.03;2.97;;;;;;;;;;5023900;28;20538;-76
2023/05/31 10:08:19;;;;;;;5.65;2.35;;;;;;;;;;5018728;28;20066;-76
2023/05/31 10:10:44;;;;;;;7.95;2.63;;;;;;;;;;5018751;28;20034;-76
2023/05/31 10:13:11;;;;;;;7.10;2.20;;;;;;;;;;5023130;28;20051;-76
2023/05/31 10:15:37;;;;;;;4.43;1.60;;;;;;;;;;5002389;28;20293;-75
2023/05/31 10:18:06;;;;;;;3.80;2.10;;;;;;;;;;5018725;28;20033;-76
2023/05/31 10:20:39;;;;;;;3.53;1.48;;;;;;;;;;5005216;28;20488;-76
2023/05/31 10:23:05;;;;;;;4.03;2.13;;;;;;;;;;5021498;28;20159;-76
2023/05/31 10:25:40;;;;;;;3.70;1.33;;;;;;;;;;5022258;28;20029;-76
2023/05/31 10:28:10;;;;;;;3.10;1.30;;;;;;;;;;5020115;28;20033;-77
2023/05/31 10:30:38;;;;;;;4.20;2.00;;;;;;;;;;5016183;28;20140;-77
2023/05/31 10:33:07;;;;;;;2.78;1.30;;;;;;;;;;5022252;28;20033;-77
2023/05/31 10:35:32;;;;;;;5.35;1.70;;;;;;;;;;5003680;28;20042;-77
2023/05/31 10:37:58;;;;;;;3.80;1.73;;;;;;;;;;5004131;28;20420;-77
2023/05/31 10:40:29;;;;;;;3.65;1.42;;;;;;;;;;5021931;28;20040;-77
2023/05/31 10:42:56;;;;;;;6.35;1.80;;;;;;;;;;5004486;28;20053;-77
2023/05/31 10:45:42;;;;;;;4.00;1.45;;;;;;;;;;5020486;28;20104;-77
2023/05/31 10:48:26;;;;;;;5.53;1.70;;;;;;;;;;4995560;28;20034;-76
2023/05/31 10:50:58;;;;;;;4.22;1.50;;;;;;;;;;5020322;28;20512;-76
2023/05/31 10:53:27;;;;;;;4.22;1.58;;;;;;;;;;5021028;28;20466;-76
2023/05/31 10:55:52;;;;;;;6.35;1.70;;;;;;;;;;5019440;28;20088;-76
2023/05/31 10:58:24;;;;;;;5.77;1.60;;;;;;;;;;5021269;28;20679;-76
2023/05/31 11:00:51;;;;;;;5.15;1.77;;;;;;;;;;5019950;28;20366;-73
2023/05/31 11:03:20;;;;;;;4.80;1.40;;;;;;;;;;5022495;28;20033;-73
2023/05/31 11:05:53;;;;;;;8.95;2.20;;;;;;;;;;5016158;28;20033;-73
2023/05/31 11:08:18;;;;;;;5.07;2.10;;;;;;;;;;5017430;28;20455;-73
2023/05/31 11:10:44;;;;;;;2.85;1.20;;;;;;;;;;5018042;28;20197;-73
2023/05/31 11:13:10;;;;;;;5.18;2.33;;;;;;;;;;5019257;28;20452;-73
2023/05/31 11:15:41;;;;;;;6.78;2.50;;;;;;;;;;5002940;28;20025;-73
2023/05/31 11:18:07;;;;;;;3.97;1.65;;;;;;;;;;5017716;28;20041;-73
2023/05/31 11:20:34;;;;;;;3.00;1.20;;;;;;;;;;5019890;28;20022;-73
2023/05/31 11:23:23;;;;;;;3.67;1.60;;;;;;;;;;5021032;28;20485;-73
2023/05/31 11:26:07;;;;;;;7.10;2.85;;;;;;;;;;5006163;28;20452;-73
2023/05/31 11:28:49;;;;;;;6.25;2.30;;;;;;;;;;5017839;28;20404;-73
2023/05/31 11:31:15;;;;;;;3.70;1.60;;;;;;;;;;5019840;28;20036;-73
2023/05/31 11:33:43;;;;;;;5.75;2.70;;;;;;;;;;5019005;28;20033;-73
2023/05/31 11:36:09;;;;;;;5.20;2.75;;;;;;;;;;5022673;28;20097;-73
2023/05/31 11:38:35;;;;;;;4.40;1.65;;;;;;;;;;5018987;28;20034;-73
2023/05/31 11:41:04;;;;;;;3.83;1.83;;;;;;;;;;5017996;28;20021;-72
2023/05/31 11:43:29;;;;;;;4.75;1.45;;;;;;;;;;5019229;28;20112;-73
2023/05/31 11:45:55;;;;;;;5.13;1.58;;;;;;;;;;5020570;28;20105;-73
2023/05/31 11:48:23;;;;;;;5.07;2.70;;;;;;;;;;5021973;28;20022;-73
2023/05/31 11:50:48;;;;;;;4.97;2.65;;;;;;;;;;5023814;28;20037;-73
2023/05/31 11:53:14;;;;;;;8.25;2.63;;;;;;;;;;5025383;28;20095;-73
2023/05/31 11:55:44;;;;;;;6.30;3.03;;;;;;;;;;5023731;28;20073;-73
2023/05/31 11:58:09;;;;;;;4.22;2.28;;;;;;;;;;5029200;28;20025;-73
2023/05/31 12:00:35;;;;;;;5.85;1.70;;;;;;;;;;5023999;28;20037;-73
2023/05/31 12:03:05;;;;;;;4.50;1.40;;;;;;;;;;5024552;28;20113;-73
2023/05/31 12:05:30;;;;;;;4.18;1.73;;;;;;;;;;5023344;28;20344;-73
2023/05/31 12:07:56;;;;;;;3.80;1.95;;;;;;;;;;5023793;28;20112;-73
2023/05/31 12:10:25;;;;;;;4.03;1.67;;;;;;;;;;5005126;28;20122;-73
2023/05/31 12:12:50;;;;;;;4.85;2.70;;;;;;;;;;5026065;28;20229;-73
2023/05/31 12:15:16;;;;;;;8.77;3.20;;;;;;;;;;5022290;28;20033;-73
2023/05/31 12:17:41;;;;;;;5.80;3.10;;;;;;;;;;5020466;28;20285;-73
2023/05/31 12:20:07;;;;;;;4.73;2.00;;;;;;;;;;5024179;28;20017;-73
2023/05/31 12:22:33;;;;;;;5.15;2.90;;;;;;;;;;5026718;28;20404;-72
2023/05/31 12:24:59;;;;;;;5.85;3.70;;;;;;;;;;5025684;28;20033;-73
2023/05/31 12:27:26;;;;;;;4.22;2.00;;;;;;;;;;5022348;28;20030;-73
2023/05/31 12:29:57;;;;;;;3.88;1.95;;;;;;;;;;5021582;28;20084;-72
2023/05/31 12:32:27;;;;;;;4.88;2.22;;;;;;;;;;5017225;28;20038;-73
2023/05/31 12:34:52;;;;;;;3.30;1.70;;;;;;;;;;5024272;28;20117;-75
2023/05/31 12:37:18;;;;;;;4.85;1.50;;;;;;;;;;5023884;28;20037;-75
2023/05/31 12:39:45;;;;;;;2.83;1.47;;;;;;;;;;5023890;28;20030;-75
2023/05/31 12:42:10;;;;;;;7.13;2.50;;;;;;;;;;5023149;28;20091;-75
2023/05/31 12:44:36;;;;;;;6.03;1.80;;;;;;;;;;5024854;28;20038;-75
2023/05/31 12:47:02;;;;;;;5.47;1.80;;;;;;;;;;5017477;28;20508;-75
2023/05/31 12:49:28;;;;;;;3.42;1.58;;;;;;;;;;5021622;28;20265;-75
2023/05/31 12:52:01;;;;;;;2.67;1.63;;;;;;;;;;5023968;28;20021;-74
2023/05/31 12:54:27;;;;;;;4.80;1.88;;;;;;;;;;5018819;28;20076;-74
2023/05/31 12:56:52;;;;;;;3.88;1.80;;;;;;;;;;5023356;28;20068;-72
2023/05/31 12:59:18;;;;;;;3.80;1.98;;;;;;;;;;5021569;28;20041;-71
2023/05/31 13:01:43;;;;;;;4.72;1.95;;;;;;;;;;5019941;28;20507;-72
2023/05/31 13:04:09;;;;;;;4.18;2.10;;;;;;;;;;5024412;28;20041;-72
2023/05/31 13:06:35;;;;;;;4.28;1.70;;;;;;;;;;5019875;28;20021;-72
2023/05/31 13:09:04;;;;;;;4.78;1.85;;;;;;;;;;5023676;28;20120;-72
2023/05/31 13:11:29;;;;;;;4.20;2.10;;;;;;;;;;5019877;28;20123;-72
2023/05/31 13:13:55;;;;;;;4.70;1.98;;;;;;;;;;5022476;28;20117;-72
2023/05/31 13:16:20;;;;;;;4.50;2.30;;;;;;;;;;5005217;28;20045;-72
2023/05/31 13:18:46;;;;;;;3.35;1.88;;;;;;;;;;5022710;28;20037;-71
2023/05/31 13:21:11;;;;;;;3.42;2.00;;;;;;;;;;5023195;28;20103;-72
2023/05/31 13:23:36;;;;;;;3.17;1.83;;;;;;;;;;5021684;28;20083;-72
2023/05/31 13:26:02;;;;;;;4.17;1.77;;;;;;;;;;5022917;28;20041;-72
2023/05/31 13:28:27;;;;;;;7.55;2.28;;;;;;;;;;5022471;28;20038;-72
2023/05/31 13:30:53;;;;;;;5.73;1.83;;;;;;;;;;5021346;28;20037;-72
2023/05/31 13:33:18;;;;;;;4.30;2.67;;;;;;;;;;5022425;28;20037;-72
2023/05/31 13:35:43;;;;;;;4.67;3.00;;;;;;;;;;5023018;28;20048;-73
2023/05/31 13:38:08;;;;;;;5.93;2.67;;;;;;;;;;5022075;28;20037;-72
2023/05/31 13:40:34;;;;;;;4.43;2.27;;;;;;;;;;5022795;28;20034;-72
2023/05/31 13:42:59;;;;;;;5.00;1.90;;;;;;;;;;5021483;28;20787;-72
2023/05/31 13:45:25;;;;;;;5.40;1.90;;;;;;;;;;5022070;28;20034;-72
2023/05/31 13:47:50;;;;;;;3.77;2.00;;;;;;;;;;5005706;28;20036;-72
2023/05/31 13:50:15;;;;;;;3.10;1.92;;;;;;;;;;5021272;28;20117;-72
2023/05/31 13:52:41;;;;;;;5.07;2.20;;;;;;;;;;5023219;28;20025;-71
2023/05/31 13:55:06;;;;;;;5.47;2.20;;;;;;;;;;5021379;28;20037;-72
2023/05/31 13:57:32;;;;;;;5.65;1.90;;;;;;;;;;5020432;28;20030;-72
2023/05/31 13:59:57;;;;;;;4.28;1.83;;;;;;;;;;5021828;28;20025;-72
2023/05/31 14:02:22;;;;;;;3.33;1.80;;;;;;;;;;5022511;28;20395;-72
2023/05/31 14:04:48;;;;;;;4.07;1.70;;;;;;;;;;5019793;28;20292;-72
2023/05/31 14:07:14;;;;;;;4.55;2.25;;;;;;;;;;5016481;28;20036;-72
2023/05/31 14:09:40;;;;;;;4.75;2.13;;;;;;;;;;5017419;28;20084;-72
2023/05/31 14:12:07;;;;;;;3.95;1.60;;;;;;;;;;5023576;28;20562;-72
2023/05/31 14:14:32;;;;;;;2.17;1.27;;;;;;;;;;5016253;28;20041;-73
2023/05/31 14:16:58;;;;;;;4.50;1.97;;;;;;;;;;5020722;28;20411;-72
2023/05/31 14:19:24;;;;;;;3.75;1.40;;;;;;;;;;5019653;28;20281;-71
2023/05/31 14:21:49;;;;;;;3.00;1.33;;;;;;;;;;5023594;28;20380;-72
2023/05/31 14:24:14;;;;;;;2.75;1.42;;;;;;;;;;5018931;28;20137;-72
2023/05/31 14:26:39;;;;;;;3.70;1.37;;;;;;;;;;5023555;28;20030;-72
2023/05/31 14:29:04;;;;;;;4.27;1.40;;;;;;;;;;5020314;28;20034;-72
2023/05/31 14:31:30;;;;;;;3.93;1.47;;;;;;;;;;5019794;28;20045;-72
2023/05/31 14:33:55;;;;;;;4.00;1.60;;;;;;;;;;5021090;28;20033;-72
2023/05/31 14:36:20;;;;;;;4.32;1.50;;;;;;;;;;5020420;28;20320;-72
2023/05/31 14:38:45;;;;;;;3.67;1.57;;;;;;;;;;5022596;28;20030;-71
2023/05/31 14:41:11;;;;;;;5.47;2.30;;;;;;;;;;5020240;28;20316;-72